.
WxDataArchive / Data Records for 2011-05-04
2011-05-03 May 2011 2011-05-05

Data Records for Wednesday, 04 May 2011

Time	Temp	Chill	HIndex	Humid	Dewpt	 Wind 	HiWind	WindDir	Rain 	Barom 
-----	----	-----	------	-----	-----	------	------	-------	-----	----- 
00:00	48.3	48.3	48.3	49	30.0	0	1	338	0.00	30.204 
00:05	48.3	48.3	48.3	50	30.5	0	0	---	0.00	30.204 
00:10	48.2	48.2	48.2	50	30.4	0	3	338	0.00	30.204 
00:15	48.2	48.2	48.2	50	30.4	0	1	0	0.00	30.205 
00:20	48.2	48.2	48.2	50	30.4	0	1	0	0.00	30.205 
00:25	48.0	48.0	48.0	50	30.3	0	0	---	0.00	30.205 
00:30	48.0	48.0	48.0	49	29.8	1	2	0	0.00	30.204 
00:35	47.9	47.9	47.9	50	30.2	0	3	0	0.00	30.204 
00:40	47.9	47.9	47.9	50	30.2	0	1	315	0.00	30.204 
00:45	47.7	47.7	47.7	50	30.0	0	3	315	0.00	30.210 
00:50	47.6	47.6	47.6	51	30.4	1	4	338	0.00	30.210 
00:55	47.4	47.4	47.4	51	30.2	0	3	270	0.00	30.210 
01:00	47.3	47.3	47.3	52	30.6	0	4	270	0.00	30.213 
01:05	47.1	47.1	47.1	52	30.4	0	1	270	0.00	30.213 
01:10	47.1	47.1	47.1	53	30.9	0	1	270	0.00	30.213 
01:15	47.0	47.0	47.0	54	31.2	0	2	270	0.00	30.211 
01:20	46.8	46.8	46.8	54	31.0	0	1	270	0.00	30.211 
01:25	46.8	46.8	46.8	55	31.5	0	1	270	0.00	30.211 
01:30	46.7	46.7	46.7	55	31.4	0	2	270	0.00	30.210 
01:35	46.5	46.5	46.5	56	31.7	0	1	270	0.00	30.210 
01:40	46.5	46.5	46.5	56	31.7	0	1	270	0.00	30.210 
01:45	46.4	46.4	46.4	57	32.0	0	0	---	0.00	30.212 
01:50	46.2	46.2	46.2	57	31.8	0	1	270	0.00	30.212 
01:55	46.1	46.1	46.1	58	32.2	0	2	270	0.00	30.212 
02:00	46.0	46.0	46.0	58	32.1	0	1	270	0.00	30.209 
02:05	46.0	46.0	46.0	59	32.5	0	2	270	0.00	30.209 
02:10	45.8	45.8	45.8	60	32.7	0	1	270	0.00	30.209 
02:15	45.7	45.7	45.7	61	33.0	0	1	270	0.00	30.201 
02:20	45.7	45.7	45.7	63	33.8	0	2	270	0.00	30.201 
02:25	45.4	45.4	45.4	64	33.9	0	1	270	0.00	30.201 
02:30	45.4	45.4	45.4	65	34.3	0	2	270	0.00	30.199 
02:35	45.2	45.2	45.2	65	34.1	0	1	270	0.00	30.199 
02:40	45.1	45.1	45.1	65	34.0	0	1	270	0.00	30.199 
02:45	44.9	44.9	44.9	66	34.2	0	0	---	0.00	30.197 
02:50	44.9	44.9	44.9	66	34.2	0	0	---	0.00	30.197 
02:55	44.8	44.8	44.8	67	34.5	0	1	270	0.00	30.197 
03:00	44.8	44.8	44.8	67	34.5	0	1	270	0.00	30.200 
03:05	44.6	44.6	44.6	67	34.3	0	1	270	0.00	30.200 
03:10	44.6	44.6	44.6	67	34.3	0	0	---	0.00	30.200 
03:15	44.5	44.5	44.5	67	34.2	0	1	270	0.00	30.205 
03:20	44.5	44.5	44.5	67	34.2	0	1	270	0.00	30.205 
03:25	44.3	44.3	44.3	68	34.4	0	1	270	0.00	30.205 
03:30	44.2	44.2	44.2	68	34.3	0	3	270	0.00	30.212 
03:35	43.9	43.9	43.9	68	34.0	1	3	270	0.00	30.212 
03:40	43.8	43.8	43.8	68	33.9	1	2	270	0.00	30.212 
03:45	43.6	43.6	43.6	69	34.1	0	1	270	0.00	30.212 
03:50	43.5	43.5	43.5	69	34.0	0	2	270	0.00	30.212 
03:55	43.3	43.3	43.3	68	33.5	1	3	315	0.00	30.212 
04:00	43.2	43.2	43.2	68	33.4	0	2	315	0.00	30.214 
04:05	43.1	43.1	43.1	69	33.6	0	1	315	0.00	30.214 
04:10	42.9	42.9	42.9	69	33.4	0	2	315	0.00	30.214 
04:15	42.9	42.9	42.9	69	33.4	0	1	315	0.00	30.215 
04:20	42.8	42.8	42.8	69	33.3	0	2	315	0.00	30.215 
04:25	42.8	42.8	42.8	70	33.7	0	2	315	0.00	30.215 
04:30	42.6	42.6	42.6	70	33.5	1	3	315	0.00	30.218 
04:35	42.5	42.5	42.5	70	33.4	1	4	292	0.00	30.218 
04:40	42.5	42.5	42.5	70	33.4	0	3	292	0.00	30.218 
04:45	42.3	42.3	42.3	70	33.2	1	4	292	0.00	30.221 
04:50	42.3	42.3	42.3	70	33.2	0	1	292	0.00	30.221 
04:55	42.2	42.2	42.2	71	33.5	0	3	292	0.01	30.221 
05:00	42.2	42.2	42.2	71	33.5	0	2	292	0.00	30.224 
05:05	42.2	42.2	42.2	71	33.5	0	2	292	0.00	30.224 
05:10	42.1	42.1	42.1	71	33.4	0	3	292	0.00	30.224 
05:15	42.2	42.2	42.2	70	33.1	1	3	292	0.00	30.229 
05:20	42.2	42.2	42.2	70	33.1	0	2	292	0.00	30.229 
05:25	42.1	42.1	42.1	70	33.0	0	2	292	0.00	30.229 
05:30	42.1	42.1	42.1	69	32.7	1	3	292	0.00	30.229 
05:35	41.9	41.9	41.9	70	32.8	0	1	292	0.00	30.229 
05:40	41.9	41.9	41.9	71	33.2	0	1	292	0.00	30.229 
05:45	41.8	41.8	41.8	72	33.4	0	2	292	0.00	30.232 
05:50	41.8	41.8	41.8	71	33.1	0	2	292	0.00	30.232 
05:55	41.6	41.6	41.6	71	32.9	0	3	292	0.00	30.232 
06:00	41.6	41.6	41.6	70	32.6	0	3	0	0.00	30.234 
06:05	41.6	41.6	41.6	70	32.6	1	2	0	0.00	30.234 
06:10	41.6	41.6	41.6	70	32.6	0	2	0	0.00	30.234 
06:15	41.6	41.6	41.6	70	32.6	0	1	0	0.00	30.240 
06:20	41.6	41.6	41.6	71	32.9	0	2	0	0.00	30.240 
06:25	41.5	41.5	41.5	71	32.8	0	1	0	0.00	30.240 
06:30	41.5	41.5	41.5	72	33.2	0	2	0	0.00	30.246 
06:35	41.5	41.5	41.5	72	33.2	0	1	0	0.00	30.246 
06:40	41.3	41.3	41.3	72	33.0	0	3	0	0.00	30.246 
06:45	41.2	41.2	41.2	72	32.9	0	1	270	0.00	30.252 
06:50	41.2	41.2	41.2	72	32.9	0	3	270	0.00	30.252 
06:55	41.2	41.2	41.2	72	32.9	0	2	270	0.00	30.252 
07:00	41.1	41.1	41.1	73	33.1	0	2	270	0.00	30.262 
07:05	40.9	40.9	40.9	73	32.9	0	4	270	0.00	30.262 
07:10	40.9	40.9	40.9	73	32.9	1	2	270	0.00	30.262 
07:15	40.8	40.8	40.8	73	32.8	0	4	270	0.00	30.266 
07:20	40.8	40.8	40.8	73	32.8	0	3	270	0.00	30.266 
07:25	40.8	40.8	40.8	73	32.8	0	2	270	0.00	30.266 
07:30	40.8	40.8	40.8	73	32.8	0	3	338	0.00	30.275 
07:35	40.8	40.8	40.8	73	32.8	0	2	338	0.00	30.275 
07:40	40.8	40.8	40.8	73	32.8	0	2	338	0.00	30.275 
07:45	40.8	40.8	40.8	73	32.8	1	3	338	0.00	30.279 
07:50	40.8	40.8	40.8	73	32.8	0	2	315	0.00	30.279 
07:55	40.8	40.8	40.8	73	32.8	0	3	315	0.00	30.279 
08:00	40.8	40.8	40.8	73	32.8	1	4	315	0.00	30.283 
08:05	40.8	40.8	40.8	72	32.5	0	2	338	0.00	30.283 
08:10	40.9	40.9	40.9	72	32.6	0	3	338	0.00	30.283 
08:15	40.9	40.9	40.9	71	32.2	1	3	270	0.00	30.295 
08:20	41.1	41.1	41.1	70	32.1	1	4	292	0.00	30.295 
08:25	41.3	41.3	41.3	70	32.3	1	4	270	0.00	30.295 
08:30	41.9	41.9	41.9	72	33.5	0	3	270	0.00	30.297 
08:35	42.8	42.8	42.8	71	34.1	0	3	270	0.00	30.297 
08:40	43.2	43.2	43.2	69	33.7	1	4	270	0.00	30.297 
08:45	43.2	43.2	43.2	68	33.4	1	3	270	0.00	30.300 
08:50	43.5	43.5	43.5	66	32.9	1	3	0	0.00	30.300 
08:55	43.8	43.8	43.8	66	33.2	1	4	0	0.00	30.300 
09:00	43.5	43.5	43.5	65	32.5	1	4	315	0.00	30.306 
09:05	43.1	43.1	43.1	65	32.1	1	3	315	0.00	30.306 
09:10	42.8	42.8	42.8	67	32.6	0	1	315	0.00	30.306 
09:15	42.5	42.5	42.5	67	32.3	1	4	315	0.00	30.313 
09:20	42.3	42.3	42.3	67	32.1	1	3	315	0.00	30.313 
09:25	42.2	42.2	42.2	67	32.0	1	4	315	0.00	30.313 
09:30	42.6	42.6	42.6	69	33.2	0	3	270	0.00	30.315 
09:35	43.3	43.3	43.3	66	32.7	1	4	338	0.00	30.315 
09:40	43.8	43.8	43.8	65	32.8	1	3	292	0.00	30.315 
09:45	43.5	43.5	43.5	65	32.5	1	3	338	0.00	30.321 
09:50	43.1	43.1	43.1	66	32.5	1	3	0	0.00	30.321 
09:55	43.1	43.1	43.1	66	32.5	0	3	338	0.00	30.321 
10:00	42.9	42.9	42.9	66	32.3	1	4	270	0.00	30.328 
10:05	42.9	42.9	42.9	66	32.3	1	3	270	0.00	30.328 
10:10	43.1	43.1	43.1	66	32.5	0	2	292	0.00	30.328 
10:15	43.2	43.2	43.2	67	33.0	0	1	292	0.00	30.330 
10:20	43.3	43.3	43.3	66	32.7	0	2	292	0.00	30.330 
10:25	43.3	43.3	43.3	66	32.7	1	3	292	0.00	30.330 
10:30	43.1	43.1	43.1	65	32.1	1	3	315	0.00	30.334 
10:35	43.2	43.2	43.2	66	32.6	0	2	315	0.00	30.334 
10:40	43.8	43.8	43.8	67	33.6	0	3	315	0.00	30.334 
10:45	43.9	43.9	43.9	67	33.7	0	2	315	0.00	30.336 
10:50	44.2	44.2	44.2	66	33.6	0	2	315	0.00	30.336 
10:55	44.1	44.1	44.1	66	33.5	1	2	315	0.00	30.336 
11:00	44.1	44.1	44.1	67	33.9	0	2	315	0.00	30.344 
11:05	44.1	44.1	44.1	66	33.5	0	2	315	0.00	30.344 
11:10	44.3	44.3	44.3	67	34.0	0	1	315	0.00	30.344 
11:15	44.5	44.5	44.5	66	33.9	0	2	315	0.00	30.345 
11:20	44.5	44.5	44.5	65	33.5	0	3	315	0.00	30.345 
11:25	44.8	44.8	44.8	66	34.1	1	3	270	0.00	30.345 
11:30	44.8	44.8	44.8	65	33.8	1	3	292	0.00	30.347 
11:35	45.4	45.4	45.4	67	35.1	0	3	292	0.00	30.347 
11:40	46.2	46.2	46.2	67	35.9	1	3	292	0.00	30.347 
11:45	47.0	47.0	47.0	64	35.5	1	5	248	0.00	30.347 
11:50	47.6	47.6	47.6	65	36.4	1	3	270	0.00	30.347 
11:55	48.2	48.2	48.2	62	35.8	0	3	270	0.00	30.347 
12:00	48.2	48.2	48.2	62	35.8	1	3	338	0.00	30.346 
12:05	48.6	48.6	48.6	64	37.0	1	4	292	0.00	30.346 
12:10	49.4	49.4	49.4	61	36.5	1	3	292	0.00	30.346 
12:15	49.5	49.5	49.5	60	36.2	1	3	45	0.00	30.346 
12:20	49.6	49.6	49.6	62	37.1	1	3	270	0.00	30.346 
12:25	49.8	49.8	49.8	59	36.1	0	3	338	0.00	30.346 
12:30	50.4	50.4	50.4	61	37.5	1	3	338	0.00	30.347 
12:35	51.0	51.0	51.0	58	36.7	1	4	90	0.00	30.347 
12:40	51.6	51.6	51.6	56	36.4	0	4	90	0.00	30.347 
12:45	52.0	52.0	52.0	57	37.2	1	3	90	0.00	30.340 
12:50	52.6	52.6	52.6	58	38.2	0	2	90	0.00	30.340 
12:55	52.8	52.8	52.8	57	38.0	1	5	90	0.01	30.340 
13:00	52.9	52.9	52.9	53	36.2	1	4	90	0.00	30.338 
13:05	52.5	52.5	52.5	53	35.9	1	3	270	0.00	30.338 
13:10	52.8	52.8	52.8	53	36.1	2	5	112	0.00	30.338 
13:15	53.2	53.2	53.2	57	38.4	0	2	45	0.00	30.336 
13:20	53.3	53.3	53.3	50	35.1	0	2	45	0.00	30.336 
13:25	53.1	53.1	53.1	51	35.5	1	6	22	0.00	30.336 
13:30	52.5	52.5	52.5	48	33.4	1	5	112	0.00	30.334 
13:35	52.8	52.8	52.8	49	34.2	1	4	112	0.00	30.334 
13:40	53.3	53.3	53.3	42	30.8	1	3	90	0.00	30.334 
13:45	53.5	53.5	53.5	45	32.7	2	5	135	0.00	30.325 
13:50	53.1	53.1	53.1	46	32.9	0	3	315	0.00	30.325 
13:55	52.5	52.5	52.5	43	30.7	0	2	68	0.00	30.325 
14:00	52.0	52.0	52.0	46	31.9	0	1	45	0.00	30.326 
14:05	51.7	51.7	51.7	44	30.5	1	4	292	0.00	30.326 
14:10	51.7	51.7	51.7	47	32.1	1	4	292	0.00	30.326 
14:15	51.9	51.9	51.9	47	32.3	2	5	292	0.00	30.334 
14:20	51.9	51.9	51.9	46	31.8	0	1	338	0.00	30.334 
14:25	52.2	52.2	52.2	45	31.5	1	4	292	0.00	30.334 
14:30	52.0	52.0	52.0	45	31.3	1	3	315	0.00	30.338 
14:35	51.9	51.9	51.9	44	30.7	0	3	270	0.00	30.338 
14:40	51.9	51.9	51.9	45	31.2	0	2	270	0.00	30.338 
14:45	51.7	51.7	51.7	45	31.1	1	4	338	0.00	30.342 
14:50	51.7	51.7	51.7	46	31.6	0	2	338	0.00	30.342 
14:55	51.7	51.7	51.7	45	31.1	0	2	338	0.00	30.342 
15:00	52.0	52.0	52.0	45	31.3	2	4	248	0.00	30.342 
15:05	52.6	52.6	52.6	43	30.7	1	2	338	0.00	30.342 
15:10	53.3	53.3	53.3	47	33.6	1	3	338	0.00	30.342 
15:15	54.8	54.8	54.8	42	32.2	1	4	225	0.00	30.339 
15:20	54.5	54.5	54.5	39	30.1	1	3	225	0.00	30.339 
15:25	54.1	54.1	54.1	41	30.9	2	7	315	0.00	30.339 
15:30	53.5	53.5	53.5	41	30.4	1	7	270	0.00	30.341 
15:35	53.6	53.6	53.6	44	32.2	1	3	270	0.00	30.341 
15:40	54.5	54.5	54.5	42	31.9	0	3	270	0.00	30.341 
15:45	55.1	55.1	55.1	36	28.6	0	2	270	0.00	30.338 
15:50	55.3	55.3	55.3	38	30.1	0	3	338	0.00	30.338 
15:55	55.1	55.1	55.1	36	28.6	1	4	248	0.00	30.338 
16:00	54.8	54.8	54.8	35	27.7	0	3	270	0.00	30.337 
16:05	54.7	54.7	54.7	37	28.9	0	1	315	0.00	30.337 
16:10	54.5	54.5	54.5	39	30.1	1	4	248	0.00	30.337 
16:15	54.4	54.4	54.4	37	28.7	1	4	0	0.00	30.337 
16:20	54.8	54.8	54.8	39	30.3	0	3	338	0.00	30.337 
16:25	55.0	55.0	55.0	38	29.9	1	2	315	0.00	30.337 
16:30	55.3	55.3	55.3	40	31.4	1	4	315	0.00	30.334 
16:35	55.9	55.9	55.9	39	31.3	1	2	315	0.00	30.334 
16:40	55.9	55.9	55.9	38	30.7	1	4	112	0.00	30.334 
16:45	55.9	55.9	55.9	37	30.0	0	2	112	0.00	30.326 
16:50	56.0	56.0	56.0	38	30.8	1	3	270	0.00	30.326 
16:55	56.3	56.3	56.3	35	29.0	0	2	0	0.00	30.326 
17:00	56.3	56.3	56.3	35	29.0	0	2	0	0.00	30.331 
17:05	56.0	56.0	56.0	37	30.1	1	3	270	0.00	30.331 
17:10	56.0	56.0	56.0	37	30.1	0	3	270	0.00	30.331 
17:15	56.0	56.0	56.0	37	30.1	0	2	270	0.00	30.326 
17:20	56.6	56.6	56.6	38	31.3	1	4	45	0.00	30.326 
17:25	56.7	56.7	56.7	36	30.0	0	2	45	0.00	30.326 
17:30	56.9	56.9	56.9	36	30.2	0	1	45	0.00	30.332 
17:35	57.0	57.0	57.0	35	29.6	0	2	45	0.00	30.332 
17:40	57.2	57.2	57.2	32	27.6	0	2	45	0.00	30.332 
17:45	57.0	57.0	57.0	37	31.0	0	3	45	0.00	30.330 
17:50	56.9	56.9	56.9	35	29.5	0	2	45	0.00	30.330 
17:55	57.0	57.0	57.0	35	29.6	0	1	45	0.00	30.330 
18:00	56.9	56.9	56.9	32	27.4	1	4	45	0.00	30.332 
18:05	56.9	56.9	56.9	38	31.6	0	1	90	0.00	30.332 
18:10	56.6	56.6	56.6	37	30.6	3	11	90	0.00	30.332 
18:15	56.6	56.6	56.6	36	30.0	0	3	292	0.00	30.336 
18:20	56.6	56.6	56.6	34	28.6	0	1	292	0.00	30.336 
18:25	56.6	56.6	56.6	36	30.0	0	1	292	0.00	30.336 
18:30	56.5	56.5	56.5	36	29.9	0	2	292	0.00	30.335 
18:35	56.3	56.3	56.3	34	28.3	0	2	292	0.00	30.335 
18:40	56.0	56.0	56.0	34	28.0	0	1	292	0.00	30.335 
18:45	55.7	55.7	55.7	36	29.2	0	1	292	0.00	30.335 
18:50	55.4	55.4	55.4	35	28.2	0	3	292	0.00	30.335 
18:55	55.3	55.3	55.3	36	28.8	0	1	292	0.00	30.335 
19:00	55.3	55.3	55.3	36	28.8	0	0	---	0.00	30.331 
19:05	55.4	55.4	55.4	40	31.5	0	1	292	0.00	30.331 
19:10	55.9	55.9	55.9	37	30.0	0	2	292	0.00	30.331 
19:15	56.3	56.3	56.3	34	28.3	0	3	292	0.00	30.331 
19:20	56.5	56.5	56.5	35	29.2	0	1	292	0.00	30.331 
19:25	56.5	56.5	56.5	35	29.2	0	1	292	0.00	30.331 
19:30	56.5	56.5	56.5	34	28.5	0	2	292	0.00	30.328 
19:35	56.3	56.3	56.3	33	27.6	1	2	292	0.00	30.328 
19:40	56.2	56.2	56.2	33	27.5	0	3	292	0.00	30.328 
19:45	56.0	56.0	56.0	34	28.0	0	2	292	0.00	30.328 
19:50	55.9	55.9	55.9	35	28.7	0	1	292	0.00	30.328 
19:55	55.9	55.9	55.9	36	29.3	0	1	292	0.00	30.328 
20:00	55.7	55.7	55.7	34	27.8	1	4	292	0.00	30.328 
20:05	55.6	55.6	55.6	36	29.1	0	1	292	0.00	30.328 
20:10	55.3	55.3	55.3	35	28.1	0	1	292	0.00	30.328 
20:15	55.1	55.1	55.1	37	29.3	0	0	---	0.00	30.326 
20:20	54.8	54.8	54.8	37	29.0	0	0	---	0.00	30.326 
20:25	54.4	54.4	54.4	37	28.7	0	1	292	0.00	30.326 
20:30	54.1	54.1	54.1	39	29.7	0	0	---	0.00	30.328 
20:35	53.6	53.6	53.6	40	29.9	0	0	---	0.00	30.328 
20:40	53.2	53.2	53.2	41	30.1	0	0	---	0.00	30.328 
20:45	52.6	52.6	52.6	42	30.2	0	0	---	0.00	30.333 
20:50	52.0	52.0	52.0	43	30.2	0	0	---	0.00	30.333 
20:55	51.4	51.4	51.4	44	30.2	0	0	---	0.00	30.333 
21:00	51.0	51.0	51.0	45	30.4	0	0	---	0.00	30.337 
21:05	50.4	50.4	50.4	46	30.4	0	0	---	0.00	30.337 
21:10	49.9	49.9	49.9	48	31.0	0	0	---	0.00	30.337 
21:15	49.4	49.4	49.4	49	31.0	0	0	---	0.00	30.342 
21:20	49.1	49.1	49.1	50	31.3	0	0	---	0.00	30.342 
21:25	48.5	48.5	48.5	52	31.7	0	0	---	0.00	30.342 
21:30	47.9	47.9	47.9	54	32.1	0	0	---	0.00	30.347 
21:35	47.3	47.3	47.3	55	32.0	0	0	---	0.00	30.347 
21:40	47.0	47.0	47.0	55	31.7	0	0	---	0.00	30.347 
21:45	47.0	47.0	47.0	56	32.1	0	0	---	0.00	30.357 
21:50	47.6	47.6	47.6	56	32.7	0	1	292	0.00	30.357 
21:55	48.2	48.2	48.2	56	33.2	0	1	292	0.00	30.357 
22:00	48.8	48.8	48.8	56	33.8	0	1	292	0.00	30.359 
22:05	48.9	48.9	48.9	56	33.9	0	1	292	0.00	30.359 
22:10	49.1	49.1	49.1	57	34.5	0	1	292	0.00	30.359 
22:15	49.1	49.1	49.1	57	34.5	0	1	292	0.00	30.360 
22:20	48.9	48.9	48.9	57	34.3	0	1	292	0.00	30.360 
22:25	48.8	48.8	48.8	57	34.3	0	0	---	0.00	30.360 
22:30	48.6	48.6	48.6	58	34.5	0	1	292	0.00	30.361 
22:35	48.5	48.5	48.5	58	34.4	0	2	292	0.00	30.361 
22:40	48.3	48.3	48.3	58	34.2	0	2	292	0.00	30.361 
22:45	48.2	48.2	48.2	58	34.1	0	1	292	0.00	30.362 
22:50	48.0	48.0	48.0	58	33.9	0	0	---	0.00	30.362 
22:55	47.7	47.7	47.7	59	34.1	0	0	---	0.00	30.362 
23:00	47.4	47.4	47.4	60	34.2	0	1	292	0.00	30.362 
23:05	47.1	47.1	47.1	60	33.9	0	0	---	0.00	30.362 
23:10	46.8	46.8	46.8	61	34.1	0	0	---	0.00	30.362 
23:15	46.4	46.4	46.4	61	33.7	0	0	---	0.00	30.359 
23:20	46.0	46.0	46.0	62	33.7	0	0	---	0.00	30.359 
23:25	45.5	45.5	45.5	63	33.6	0	0	---	0.00	30.359 
23:30	45.2	45.2	45.2	64	33.8	0	0	---	0.00	30.364 
23:35	44.9	44.9	44.9	65	33.9	0	0	---	0.00	30.364 
23:40	44.6	44.6	44.6	66	34.0	0	0	---	0.00	30.364 
23:45	44.2	44.2	44.2	66	33.6	0	0	---	0.00	30.362 
23:50	43.9	43.9	43.9	67	33.7	0	0	---	0.00	30.362 
23:55	43.6	43.6	43.6	67	33.4	0	0	---	0.00	30.362 

CoCoRaHS
IN-AL-39
A2 Web Hosting
Creative Commons License
GoDaddy
search engine by freefind advanced

loaded 2018-11-17 12:49:52 • last modified 2010-11-18 10:43:29
Privacy PolicyDisclaimer
• wx.awcolley.com is powered by PmWiki v.2002016 •
• all content (unless otherwise noted) © 2018 A W Colley